createdAt,value
2018-10-03T00:00:27.869Z,8.77
2018-10-03T00:01:27.857Z,8.87
2018-10-03T00:02:27.860Z,8.89
2018-10-03T00:03:27.834Z,8.86
2018-10-03T00:04:27.825Z,8.81
2018-10-03T00:05:27.814Z,8.83
2018-10-03T00:06:27.805Z,8.81
2018-10-03T00:07:27.804Z,8.87
2018-10-03T00:08:27.780Z,8.87
2018-10-03T00:09:27.773Z,8.89
2018-10-03T00:10:27.757Z,8.84
2018-10-03T00:11:27.746Z,8.80
2018-10-03T00:12:27.750Z,8.81
2018-10-03T00:13:27.724Z,8.71
2018-10-03T00:14:27.712Z,8.73
2018-10-03T00:15:27.702Z,8.74
2018-10-03T00:16:27.690Z,8.80
2018-10-03T00:17:27.694Z,8.76
2018-10-03T00:18:27.682Z,8.65
2018-10-03T00:19:27.658Z,8.66
2018-10-03T00:20:27.646Z,8.73
2018-10-03T00:21:27.635Z,8.62
2018-10-03T00:22:27.627Z,8.68
2018-10-03T00:23:27.664Z,8.70
2018-10-03T00:24:27.613Z,8.63
2018-10-03T00:25:27.592Z,8.73
2018-10-03T00:26:27.580Z,8.63
2018-10-03T00:27:27.569Z,8.56
2018-10-03T00:28:27.557Z,8.50
2018-10-03T00:29:27.563Z,8.52
2018-10-03T00:30:27.535Z,8.53
2018-10-03T00:31:27.525Z,8.53
2018-10-03T00:32:27.514Z,8.55
2018-10-03T00:33:27.504Z,8.47
2018-10-03T00:34:27.490Z,8.52
2018-10-03T00:35:27.494Z,8.47
2018-10-03T00:36:27.469Z,8.43
2018-10-03T00:37:27.458Z,8.50
2018-10-03T00:38:27.449Z,8.47
2018-10-03T00:39:27.438Z,8.45
2018-10-03T00:40:27.439Z,8.45
2018-10-03T00:41:27.416Z,8.44
2018-10-03T00:42:27.403Z,8.43
2018-10-03T00:43:27.393Z,8.48
2018-10-03T00:44:27.382Z,8.45
2018-10-03T00:45:27.384Z,8.44
2018-10-03T00:46:27.364Z,8.50
2018-10-03T00:47:27.349Z,8.45
2018-10-03T00:48:27.338Z,8.41
2018-10-03T00:49:27.327Z,8.44
2018-10-03T00:50:27.336Z,8.48
2018-10-03T00:51:27.305Z,8.47
2018-10-03T00:52:27.294Z,8.45
2018-10-03T00:53:27.284Z,8.48
2018-10-03T00:54:27.271Z,8.55
2018-10-03T00:55:27.261Z,8.45
2018-10-03T00:56:27.274Z,8.56
2018-10-03T00:57:27.239Z,8.55
2018-10-03T00:58:27.228Z,8.56
2018-10-03T00:59:27.218Z,8.66
2018-10-03T01:00:27.207Z,8.70
2018-10-03T01:01:27.195Z,8.70
2018-10-03T01:02:27.198Z,8.62
2018-10-03T01:03:27.176Z,8.63
2018-10-03T01:04:27.161Z,8.76
2018-10-03T01:05:27.155Z,8.74
2018-10-03T01:06:27.139Z,8.74
2018-10-03T01:07:27.142Z,8.81
2018-10-03T01:08:27.118Z,8.86
2018-10-03T01:09:27.107Z,8.77
2018-10-03T01:10:27.101Z,8.91
2018-10-03T01:11:27.083Z,8.98
2018-10-03T01:12:27.474Z,8.92
2018-10-03T01:13:27.062Z,8.96
2018-10-03T01:14:27.050Z,8.99
2018-10-03T01:15:27.042Z,9.01
2018-10-03T01:16:27.032Z,9.15
2018-10-03T01:17:27.017Z,9.13
2018-10-03T01:18:27.020Z,9.04
2018-10-03T01:19:26.997Z,9.08
2018-10-03T01:20:26.984Z,9.18
2018-10-03T01:21:26.972Z,9.28
2018-10-03T01:22:26.962Z,9.23
2018-10-03T01:23:26.974Z,9.29
2018-10-03T01:24:26.939Z,9.21
2018-10-03T01:25:26.929Z,9.28
2018-10-03T01:26:26.916Z,9.29
2018-10-03T01:27:26.909Z,9.40
2018-10-03T01:28:26.900Z,9.23
2018-10-03T01:29:26.897Z,9.36
2018-10-03T01:30:26.872Z,9.39
2018-10-03T01:31:26.861Z,9.31
2018-10-03T01:32:26.873Z,9.43
2018-10-03T01:33:26.838Z,9.39
2018-10-03T01:34:26.828Z,9.42
2018-10-03T01:35:26.818Z,9.24
2018-10-03T01:36:26.809Z,9.36
2018-10-03T01:37:26.794Z,9.29
2018-10-03T01:38:26.835Z,9.35
2018-10-03T01:39:26.773Z,9.35
2018-10-03T01:40:26.796Z,9.38
2018-10-03T01:41:26.752Z,9.36
2018-10-03T01:42:26.742Z,9.32
2018-10-03T01:43:26.730Z,9.35
2018-10-03T01:44:26.716Z,9.36
2018-10-03T01:45:26.706Z,9.43
2018-10-03T01:46:26.711Z,9.39
2018-10-03T01:47:26.698Z,9.46
2018-10-03T01:48:26.672Z,9.48
2018-10-03T01:49:26.663Z,9.35
2018-10-03T01:50:26.650Z,9.42
2018-10-03T01:51:26.640Z,9.39
2018-10-03T01:52:26.645Z,9.32
2018-10-03T01:53:26.619Z,9.38
2018-10-03T01:54:26.606Z,9.40
2018-10-03T01:55:26.609Z,9.33
2018-10-03T01:56:26.586Z,9.35
2018-10-03T01:57:26.593Z,9.38
2018-10-03T01:58:26.564Z,9.43
2018-10-03T01:59:26.551Z,9.42
2018-10-03T02:00:26.540Z,9.40
2018-10-03T02:01:26.529Z,9.47
2018-10-03T02:02:26.519Z,9.46
2018-10-03T02:03:26.523Z,9.50
2018-10-03T02:04:26.496Z,9.51
2018-10-03T02:05:26.485Z,9.51
2018-10-03T02:06:26.473Z,9.57
2018-10-03T02:07:26.464Z,9.54
2018-10-03T02:08:26.467Z,9.58
2018-10-03T02:09:26.441Z,9.61
2018-10-03T02:10:26.431Z,9.66
2018-10-03T02:11:26.418Z,9.60
2018-10-03T02:12:26.423Z,9.64
2018-10-03T02:13:26.395Z,9.66
2018-10-03T02:14:26.402Z,9.66
2018-10-03T02:15:26.374Z,9.66
2018-10-03T02:16:26.365Z,9.66
2018-10-03T02:17:26.353Z,9.66
2018-10-03T02:18:26.340Z,9.76
2018-10-03T02:19:26.329Z,9.75
2018-10-03T02:20:26.332Z,9.69
2018-10-03T02:21:26.308Z,9.66
2018-10-03T02:22:26.296Z,9.68
2018-10-03T02:23:26.302Z,9.72
2018-10-03T02:24:26.278Z,9.66
2018-10-03T02:25:26.264Z,9.68
2018-10-03T02:26:26.252Z,9.74
2018-10-03T02:27:26.252Z,9.72
2018-10-03T02:28:26.276Z,9.71
2018-10-03T02:29:26.219Z,9.69
2018-10-03T02:30:26.211Z,9.69
2018-10-03T02:31:26.197Z,9.66
2018-10-03T02:32:26.187Z,9.68
2018-10-03T02:33:26.177Z,9.61
2018-10-03T02:34:26.183Z,9.66
2018-10-03T02:35:26.153Z,9.69
2018-10-03T02:36:26.142Z,9.68
2018-10-03T02:37:26.132Z,9.64
2018-10-03T02:38:26.121Z,9.78
2018-10-03T02:39:26.109Z,9.78
2018-10-03T02:40:26.114Z,9.76
2018-10-03T02:41:26.101Z,9.74
2018-10-03T02:42:26.076Z,9.74
2018-10-03T02:43:26.066Z,9.78
2018-10-03T02:44:26.068Z,9.75
2018-10-03T02:45:26.059Z,9.69
2018-10-03T02:46:26.033Z,9.72
2018-10-03T02:47:26.035Z,9.79
2018-10-03T02:48:26.011Z,9.74
2018-10-03T02:49:26.006Z,9.72
2018-10-03T02:50:25.990Z,9.72
2018-10-03T02:51:25.992Z,9.78
2018-10-03T02:52:25.966Z,9.69
2018-10-03T02:53:25.956Z,9.71
2018-10-03T02:54:25.944Z,9.69
2018-10-03T02:55:25.934Z,9.65
2018-10-03T02:56:25.947Z,9.68
2018-10-03T02:57:25.931Z,9.68
2018-10-03T02:58:25.901Z,9.68
2018-10-03T02:59:25.890Z,9.74
2018-10-03T03:00:25.878Z,9.71
2018-10-03T03:01:25.883Z,9.81
2018-10-03T03:02:25.859Z,9.69
2018-10-03T03:03:25.861Z,9.81
2018-10-03T03:04:25.833Z,9.78
2018-10-03T03:05:25.823Z,9.74
2018-10-03T03:06:25.812Z,9.78
2018-10-03T03:07:25.821Z,9.89
2018-10-03T03:08:25.845Z,9.86
2018-10-03T03:09:25.781Z,9.93
2018-10-03T03:10:25.769Z,9.86
2018-10-03T03:11:25.756Z,9.90
2018-10-03T03:12:25.746Z,9.87
2018-10-03T03:13:25.777Z,9.86
2018-10-03T03:14:25.723Z,9.86
2018-10-03T03:15:25.717Z,9.90
2018-10-03T03:16:25.704Z,9.89
2018-10-03T03:17:25.690Z,9.89
2018-10-03T03:18:25.679Z,9.99
2018-10-03T03:19:25.681Z,9.91
2018-10-03T03:20:25.659Z,9.99
2018-10-03T03:21:25.649Z,9.99
2018-10-03T03:22:25.635Z,10.04
2018-10-03T03:23:25.625Z,10.01
2018-10-03T03:24:25.632Z,10.01
2018-10-03T03:25:25.604Z,9.94
2018-10-03T03:26:25.591Z,9.96
2018-10-03T03:27:25.583Z,9.99
2018-10-03T03:28:25.569Z,9.93
2018-10-03T03:29:25.561Z,9.86
2018-10-03T03:30:25.568Z,9.96
2018-10-03T03:31:25.536Z,9.94
2018-10-03T03:32:25.526Z,9.94
2018-10-03T03:33:25.514Z,9.94
2018-10-03T03:34:25.503Z,10.01
2018-10-03T03:35:25.531Z,9.90
2018-10-03T03:36:25.482Z,9.94
2018-10-03T03:37:25.469Z,9.87
2018-10-03T03:38:25.458Z,9.87
2018-10-03T03:39:25.448Z,9.89
2018-10-03T03:40:25.445Z,9.93
2018-10-03T03:41:25.440Z,9.94
2018-10-03T03:42:25.415Z,9.87
2018-10-03T03:43:25.404Z,9.91
2018-10-03T03:44:25.410Z,10.01
2018-10-03T03:45:25.382Z,9.87
2018-10-03T03:46:25.386Z,10.02
2018-10-03T03:47:25.361Z,9.90
2018-10-03T03:48:25.363Z,9.87
2018-10-03T03:49:25.340Z,9.96
2018-10-03T03:50:25.331Z,9.96
2018-10-03T03:51:25.331Z,10.04
2018-10-03T03:52:25.331Z,10.01
2018-10-03T03:53:25.295Z,10.05
2018-10-03T03:54:25.287Z,9.97
2018-10-03T03:55:25.272Z,10.04
2018-10-03T03:56:25.262Z,9.96
2018-10-03T03:57:25.251Z,10.02
2018-10-03T03:58:25.262Z,9.90
2018-10-03T03:59:25.277Z,10.02
2018-10-03T04:00:25.219Z,9.89
2018-10-03T04:01:25.207Z,9.96
2018-10-03T04:02:25.200Z,10.01
2018-10-03T04:03:25.195Z,9.97
2018-10-03T04:04:25.185Z,9.91
2018-10-03T04:05:25.164Z,9.96
2018-10-03T04:06:25.152Z,9.96
2018-10-03T04:07:25.165Z,9.99
2018-10-03T04:08:25.137Z,9.96
2018-10-03T04:09:25.120Z,9.94
2018-10-03T04:10:25.109Z,10.02
2018-10-03T04:11:25.097Z,10.01
2018-10-03T04:12:25.085Z,9.99
2018-10-03T04:13:25.087Z,10.01
2018-10-03T04:14:25.064Z,10.01
2018-10-03T04:15:25.076Z,10.01
2018-10-03T04:16:25.041Z,9.91
2018-10-03T04:17:25.030Z,9.99
2018-10-03T04:18:25.020Z,10.02
2018-10-03T04:19:25.008Z,9.97
2018-10-03T04:20:24.996Z,9.99
2018-10-03T04:21:25.000Z,9.97
2018-10-03T04:22:24.975Z,10.01
2018-10-03T04:23:24.963Z,9.99
2018-10-03T04:24:24.963Z,10.02
2018-10-03T04:25:24.940Z,10.02
2018-10-03T04:26:24.930Z,9.94
2018-10-03T04:27:24.919Z,9.97
2018-10-03T04:28:24.907Z,10.07
2018-10-03T04:29:24.918Z,9.96
2018-10-03T04:30:24.885Z,10.04
2018-10-03T04:31:24.898Z,10.05
2018-10-03T04:32:24.863Z,9.97
2018-10-03T04:33:24.852Z,10.04
2018-10-03T04:34:24.842Z,10.05
2018-10-03T04:35:24.853Z,10.02
2018-10-03T04:36:24.819Z,10.01
2018-10-03T04:37:24.822Z,10.05
2018-10-03T04:38:24.797Z,10.09
2018-10-03T04:39:24.799Z,10.11
2018-10-03T04:40:24.773Z,10.14
2018-10-03T04:41:24.766Z,10.08
2018-10-03T04:42:24.811Z,10.14
2018-10-03T04:43:24.741Z,10.02
2018-10-03T04:44:24.744Z,10.04
2018-10-03T04:45:24.731Z,10.02
2018-10-03T04:46:24.707Z,10.08
2018-10-03T04:47:24.696Z,10.04
2018-10-03T04:48:24.688Z,9.99
2018-10-03T04:49:24.674Z,9.99
2018-10-03T04:50:24.676Z,10.01
2018-10-03T04:51:24.650Z,9.97
2018-10-03T04:52:24.648Z,10.07
2018-10-03T04:53:24.630Z,9.97
2018-10-03T04:54:24.618Z,9.97
2018-10-03T04:55:24.624Z,9.99
2018-10-03T04:56:24.596Z,9.96
2018-10-03T04:57:24.585Z,9.97
2018-10-03T04:58:24.574Z,9.86
2018-10-03T04:59:24.563Z,9.87
2018-10-03T05:00:24.552Z,9.87
2018-10-03T05:01:24.553Z,9.90
2018-10-03T05:02:24.529Z,9.90
2018-10-03T05:03:24.521Z,9.81
2018-10-03T05:04:24.506Z,9.76
2018-10-03T05:05:24.496Z,9.76
2018-10-03T05:06:24.506Z,9.75
2018-10-03T05:07:24.474Z,9.86
2018-10-03T05:08:24.463Z,9.84
2018-10-03T05:09:24.452Z,9.75
2018-10-03T05:10:24.440Z,9.79
2018-10-03T05:11:24.486Z,9.78
2018-10-03T05:12:24.427Z,9.75
2018-10-03T05:13:24.406Z,9.76
2018-10-03T05:14:24.395Z,9.78
2018-10-03T05:15:24.409Z,9.71
2018-10-03T05:16:24.375Z,9.65
2018-10-03T05:17:24.364Z,9.69
2018-10-03T05:18:24.351Z,9.66
2018-10-03T05:19:24.339Z,9.65
2018-10-03T05:20:24.327Z,9.65
2018-10-03T05:21:24.334Z,9.47
2018-10-03T05:22:24.307Z,9.57
2018-10-03T05:23:24.315Z,9.56
2018-10-03T05:24:24.285Z,9.57
2018-10-03T05:25:24.274Z,9.53
2018-10-03T05:26:24.262Z,9.53
2018-10-03T05:27:24.252Z,9.50
2018-10-03T05:28:24.238Z,9.43
2018-10-03T05:29:24.242Z,9.53
2018-10-03T05:30:24.216Z,9.56
2018-10-03T05:31:24.206Z,9.47
2018-10-03T05:32:24.196Z,9.66
2018-10-03T05:33:24.253Z,9.68
2018-10-03T05:34:24.172Z,9.60
2018-10-03T05:35:24.171Z,9.60
2018-10-03T05:36:24.153Z,9.69
2018-10-03T05:37:24.138Z,9.74
2018-10-03T05:38:24.128Z,9.66
2018-10-03T05:39:24.133Z,9.66
2018-10-03T05:40:24.105Z,9.65
2018-10-03T05:41:24.094Z,9.69
2018-10-03T05:42:24.083Z,9.74
2018-10-03T05:43:24.071Z,9.61
2018-10-03T05:44:24.062Z,9.69
2018-10-03T05:45:24.090Z,9.68
2018-10-03T05:46:24.038Z,9.74
2018-10-03T05:47:24.028Z,9.71
2018-10-03T05:48:24.063Z,9.68
2018-10-03T05:49:24.004Z,9.76
2018-10-03T05:50:23.993Z,9.71
2018-10-03T05:51:23.992Z,9.78
2018-10-03T05:52:23.971Z,9.75
2018-10-03T05:53:23.960Z,9.78
2018-10-03T05:54:23.951Z,9.76
2018-10-03T05:55:23.938Z,9.72
2018-10-03T05:56:23.947Z,9.69
2018-10-03T05:57:23.917Z,9.81
2018-10-03T05:58:23.907Z,9.79
2018-10-03T05:59:23.896Z,9.78
2018-10-03T06:00:23.883Z,9.78
2018-10-03T06:01:23.872Z,9.81
2018-10-03T06:02:23.872Z,9.84
2018-10-03T06:03:23.849Z,9.75
2018-10-03T06:04:23.841Z,9.86
2018-10-03T06:05:23.827Z,9.89
2018-10-03T06:06:23.818Z,9.91
2018-10-03T06:07:23.819Z,9.94
2018-10-03T06:08:23.797Z,9.90
2018-10-03T06:09:23.784Z,9.93
2018-10-03T06:10:23.783Z,9.96
2018-10-03T06:11:23.761Z,9.94
2018-10-03T06:12:23.761Z,9.97
2018-10-03T06:13:23.749Z,9.99
2018-10-03T06:14:23.732Z,9.99
2018-10-03T06:15:23.720Z,9.96
2018-10-03T06:16:23.708Z,10.02
2018-10-03T06:17:23.709Z,9.96
2018-10-03T06:18:23.721Z,10.01
2018-10-03T06:19:23.676Z,10.01
2018-10-03T06:20:23.664Z,10.02
2018-10-03T06:21:23.655Z,10.05
2018-10-03T06:22:23.643Z,10.01
2018-10-03T06:23:23.629Z,10.02
2018-10-03T06:24:23.640Z,10.01
2018-10-03T06:25:23.608Z,10.05
2018-10-03T06:26:23.596Z,10.05
2018-10-03T06:27:23.585Z,10.02
2018-10-03T06:28:23.634Z,10.05
2018-10-03T06:29:23.565Z,10.11
2018-10-03T06:30:23.567Z,10.14
2018-10-03T06:31:23.543Z,10.09
2018-10-03T06:32:23.531Z,10.15
2018-10-03T06:33:23.525Z,10.15
2018-10-03T06:34:23.512Z,10.22
2018-10-03T06:35:23.509Z,10.26
2018-10-03T06:36:23.490Z,10.27
2018-10-03T06:37:23.478Z,10.25
2018-10-03T06:38:23.469Z,10.30
2018-10-03T06:39:23.518Z,10.40
2018-10-03T06:40:23.481Z,10.32
2018-10-03T06:41:23.467Z,10.32
2018-10-03T06:42:23.448Z,10.34
2018-10-03T06:43:23.414Z,10.38
2018-10-03T06:44:23.399Z,10.36
2018-10-03T06:45:23.400Z,10.41
2018-10-03T06:46:23.442Z,10.34
2018-10-03T06:47:23.367Z,10.38
2018-10-03T06:48:23.356Z,10.36
2018-10-03T06:49:23.345Z,10.45
2018-10-03T06:50:23.347Z,10.47
2018-10-03T06:51:23.323Z,10.48
2018-10-03T06:52:23.312Z,10.45
2018-10-03T06:53:23.311Z,10.45
2018-10-03T06:54:23.292Z,10.55
2018-10-03T06:55:23.280Z,10.55
2018-10-03T06:56:23.280Z,10.56
2018-10-03T06:57:23.270Z,10.68
2018-10-03T06:58:23.248Z,10.63
2018-10-03T06:59:23.236Z,10.73
2018-10-03T07:00:23.225Z,10.71
2018-10-03T07:01:23.214Z,10.74
2018-10-03T07:02:23.215Z,10.79
2018-10-03T07:03:23.207Z,10.81
2018-10-03T07:04:23.181Z,10.81
2018-10-03T07:05:23.172Z,10.74
2018-10-03T07:06:23.161Z,10.82
2018-10-03T07:07:23.164Z,10.86
2018-10-03T07:08:23.137Z,10.79
2018-10-03T07:09:23.130Z,10.78
2018-10-03T07:10:23.115Z,10.79
2018-10-03T07:11:23.110Z,10.88
2018-10-03T07:12:23.094Z,10.82
2018-10-03T07:13:23.095Z,11.02
2018-10-03T07:14:23.070Z,10.97
2018-10-03T07:15:23.063Z,11.00
2018-10-03T07:16:23.049Z,11.09
2018-10-03T07:17:23.039Z,11.17
2018-10-03T07:18:23.039Z,11.14
2018-10-03T07:19:23.017Z,11.19
2018-10-03T07:20:23.006Z,11.22
2018-10-03T07:21:22.996Z,11.25
2018-10-03T07:22:22.983Z,11.27
2018-10-03T07:23:23.010Z,11.25
2018-10-03T07:24:22.961Z,11.19
2018-10-03T07:25:22.953Z,11.24
2018-10-03T07:26:22.940Z,11.19
2018-10-03T07:27:22.928Z,11.24
2018-10-03T07:28:22.917Z,11.14
2018-10-03T07:29:22.915Z,11.19
2018-10-03T07:30:22.895Z,11.21
2018-10-03T07:31:22.885Z,11.32
2018-10-03T07:32:22.873Z,11.40
2018-10-03T07:33:22.862Z,11.36
2018-10-03T07:34:22.866Z,11.39
2018-10-03T07:35:22.842Z,11.44
2018-10-03T07:36:22.829Z,11.39
2018-10-03T07:37:22.821Z,11.47
2018-10-03T07:38:22.809Z,11.42
2018-10-03T07:39:22.795Z,11.60
2018-10-03T07:40:22.802Z,11.70
2018-10-03T07:41:22.776Z,11.75
2018-10-03T07:42:22.762Z,11.95
2018-10-03T07:43:22.753Z,12.02
2018-10-03T07:44:22.741Z,12.04
2018-10-03T07:45:22.733Z,12.12
2018-10-03T07:46:22.728Z,12.07
2018-10-03T07:47:22.707Z,12.23
2018-10-03T07:48:22.696Z,12.29
2018-10-03T07:49:22.698Z,12.31
2018-10-03T07:50:22.687Z,12.29
2018-10-03T07:51:22.664Z,12.37
2018-10-03T07:52:22.656Z,12.47
2018-10-03T07:53:22.652Z,12.39
2018-10-03T07:54:22.646Z,12.60
2018-10-03T07:55:22.620Z,12.68
2018-10-03T07:56:22.648Z,12.87
2018-10-03T07:57:22.599Z,12.82
2018-10-03T07:58:22.590Z,12.85
2018-10-03T07:59:22.588Z,13.00
2018-10-03T08:00:22.567Z,12.96
2018-10-03T08:01:22.559Z,13.05
2018-10-03T08:02:22.547Z,13.03
2018-10-03T08:03:22.551Z,13.03
2018-10-03T08:04:22.526Z,13.05
2018-10-03T08:05:22.515Z,13.08
2018-10-03T08:06:22.506Z,13.19
2018-10-03T08:07:22.491Z,13.28
2018-10-03T08:08:22.481Z,13.39
2018-10-03T08:09:22.491Z,13.30
2018-10-03T08:10:22.459Z,13.26
2018-10-03T08:11:22.450Z,13.42
2018-10-03T08:12:22.436Z,13.45
2018-10-03T08:13:22.425Z,13.48
2018-10-03T08:14:22.424Z,13.49
2018-10-03T08:15:22.403Z,13.52
2018-10-03T08:16:22.402Z,13.52
2018-10-03T08:17:22.447Z,13.55
2018-10-03T08:18:22.368Z,13.59
2018-10-03T08:19:22.357Z,13.59
2018-10-03T08:20:22.346Z,13.54
2018-10-03T08:21:22.347Z,13.67
2018-10-03T08:22:22.324Z,13.79
2018-10-03T08:23:22.312Z,13.91
2018-10-03T08:24:22.350Z,13.96
2018-10-03T08:25:22.299Z,13.96
2018-10-03T08:26:22.290Z,13.96
2018-10-03T08:27:22.266Z,13.92
2018-10-03T08:28:22.256Z,13.92
2018-10-03T08:29:22.243Z,14.00
2018-10-03T08:30:22.232Z,14.14
2018-10-03T08:31:22.231Z,14.20
2018-10-03T08:32:22.269Z,14.29
2018-10-03T08:33:22.261Z,14.32
2018-10-03T08:34:22.187Z,14.51
2018-10-03T08:35:22.187Z,14.52
2018-10-03T08:36:22.165Z,14.55
2018-10-03T08:37:22.155Z,14.54
2018-10-03T08:38:22.143Z,14.61
2018-10-03T08:39:22.132Z,14.45
2018-10-03T08:40:22.133Z,14.36
2018-10-03T08:41:22.111Z,14.32
2018-10-03T08:42:22.131Z,14.36
2018-10-03T08:43:22.090Z,14.39
2018-10-03T08:44:22.078Z,14.40
2018-10-03T08:45:22.081Z,14.52
2018-10-03T08:46:22.057Z,14.52
2018-10-03T08:47:22.045Z,14.55
2018-10-03T08:48:22.049Z,14.73
2018-10-03T08:49:22.023Z,14.70
2018-10-03T08:50:22.179Z,14.91
2018-10-03T08:51:22.002Z,14.84
2018-10-03T08:52:21.991Z,14.92
2018-10-03T08:53:21.981Z,14.88
2018-10-03T08:54:21.969Z,14.78
2018-10-03T08:55:21.959Z,14.88
2018-10-03T08:56:21.958Z,14.98
2018-10-03T08:57:21.948Z,15.20
2018-10-03T08:58:22.100Z,15.29
2018-10-03T08:59:21.926Z,15.49
2018-10-03T09:00:21.903Z,15.59
2018-10-03T09:01:21.893Z,15.60
2018-10-03T09:02:21.882Z,15.59
2018-10-03T09:03:21.871Z,15.57
2018-10-03T09:04:21.871Z,15.59
2018-10-03T09:05:21.851Z,15.60
2018-10-03T09:06:21.849Z,15.71
2018-10-03T09:07:21.826Z,15.75
2018-10-03T09:08:21.815Z,15.72
2018-10-03T09:09:21.823Z,15.60
2018-10-03T09:10:21.799Z,15.60
2018-10-03T09:11:21.786Z,15.67
2018-10-03T09:12:21.772Z,15.71
2018-10-03T09:13:21.762Z,15.78
2018-10-03T09:14:21.753Z,15.68
2018-10-03T09:15:21.751Z,15.64
2018-10-03T09:16:21.743Z,15.68
2018-10-03T09:17:21.717Z,15.51
2018-10-03T09:18:21.712Z,15.59
2018-10-03T09:19:21.697Z,15.62
2018-10-03T09:20:21.702Z,15.57
2018-10-03T09:21:21.768Z,15.67
2018-10-03T09:22:22.000Z,15.87
2018-10-03T09:23:21.654Z,15.89
2018-10-03T09:24:21.642Z,16.11
2018-10-03T09:25:21.631Z,16.00
2018-10-03T09:26:21.624Z,16.00
2018-10-03T09:27:21.610Z,16.14
2018-10-03T09:28:21.667Z,16.09
2018-10-03T09:29:21.588Z,16.07
2018-10-03T09:30:21.578Z,15.90
2018-10-03T09:31:21.593Z,15.89
2018-10-03T09:32:21.567Z,15.90
2018-10-03T09:33:21.542Z,15.96
2018-10-03T09:34:21.532Z,15.92
2018-10-03T09:35:21.520Z,15.94
2018-10-03T09:36:21.511Z,15.89
2018-10-03T09:37:21.512Z,15.87
2018-10-03T09:38:21.503Z,15.87
2018-10-03T09:39:21.506Z,15.89
2018-10-03T09:40:21.466Z,15.93
2018-10-03T09:41:21.474Z,15.93
2018-10-03T09:42:21.443Z,16.00
2018-10-03T09:43:21.472Z,15.92
2018-10-03T09:44:21.457Z,15.97
2018-10-03T09:45:21.413Z,15.96
2018-10-03T09:46:21.400Z,15.90
2018-10-03T09:47:21.438Z,16.07
2018-10-03T09:48:21.377Z,15.89
2018-10-03T09:49:21.386Z,15.82
2018-10-03T09:50:21.357Z,15.86
2018-10-03T09:51:21.346Z,15.80
2018-10-03T09:52:21.335Z,15.83
2018-10-03T09:53:21.323Z,15.78
2018-10-03T09:54:21.327Z,15.71
2018-10-03T09:55:21.303Z,15.69
2018-10-03T09:56:21.292Z,15.74
2018-10-03T09:57:21.280Z,15.72
2018-10-03T09:58:21.269Z,15.75
2018-10-03T09:59:21.285Z,15.69
2018-10-03T10:00:21.322Z,15.71
2018-10-03T10:01:21.237Z,15.60
2018-10-03T10:02:21.226Z,15.44
2018-10-03T10:03:21.217Z,15.17
2018-10-03T10:04:21.217Z,15.13
2018-10-03T10:05:21.196Z,15.25
2018-10-03T10:06:21.183Z,15.41
2018-10-03T10:07:21.172Z,15.53
2018-10-03T10:08:21.164Z,15.75
2018-10-03T10:09:21.158Z,15.86
2018-10-03T10:10:21.253Z,15.82
2018-10-03T10:11:21.228Z,15.80
2018-10-03T10:12:21.115Z,15.75
2018-10-03T10:13:21.106Z,15.67
2018-10-03T10:14:21.110Z,15.51
2018-10-03T10:15:21.084Z,15.35
2018-10-03T10:16:21.071Z,15.38
2018-10-03T10:17:21.060Z,15.53
2018-10-03T10:18:21.066Z,15.51
2018-10-03T10:19:21.039Z,15.75
2018-10-03T10:20:21.028Z,15.76
2018-10-03T10:21:21.024Z,15.68
2018-10-03T10:22:21.006Z,15.83
2018-10-03T10:23:20.995Z,16.01
2018-10-03T10:24:20.994Z,16.02
2018-10-03T10:25:20.977Z,16.01
2018-10-03T10:26:20.975Z,16.00
2018-10-03T10:27:20.951Z,16.00
2018-10-03T10:28:20.940Z,16.12
2018-10-03T10:29:20.942Z,16.24
2018-10-03T10:30:20.917Z,16.39
2018-10-03T10:31:20.907Z,16.39
2018-10-03T10:32:21.005Z,16.41
2018-10-03T10:33:20.884Z,16.25
2018-10-03T10:34:20.890Z,16.12
2018-10-03T10:35:20.863Z,16.01
2018-10-03T10:36:20.852Z,16.00
2018-10-03T10:37:20.840Z,15.89
2018-10-03T10:38:20.830Z,15.78
2018-10-03T10:39:20.818Z,15.83
2018-10-03T10:40:20.892Z,15.82
2018-10-03T10:41:21.040Z,15.92
2018-10-03T10:42:20.786Z,16.00
2018-10-03T10:43:20.834Z,16.09
2018-10-03T10:44:20.767Z,16.21
2018-10-03T10:45:20.785Z,16.39
2018-10-03T10:46:20.742Z,16.53
2018-10-03T10:47:20.731Z,16.56
2018-10-03T10:48:20.719Z,16.61
2018-10-03T10:49:20.708Z,16.68
2018-10-03T10:50:20.771Z,16.64
2018-10-03T10:51:20.704Z,16.68
2018-10-03T10:52:20.676Z,16.66
2018-10-03T10:53:20.665Z,16.63
2018-10-03T10:54:20.654Z,16.41
2018-10-03T10:55:20.644Z,16.21
2018-10-03T10:56:20.645Z,16.20
2018-10-03T10:57:20.632Z,16.23
2018-10-03T10:58:20.611Z,16.17
2018-10-03T10:59:20.600Z,16.14
2018-10-03T11:00:20.590Z,16.17
2018-10-03T11:01:20.588Z,16.01
2018-10-03T11:02:20.567Z,16.11
2018-10-03T11:03:20.556Z,16.11
2018-10-03T11:04:20.556Z,16.31
2018-10-03T11:05:20.870Z,16.39
2018-10-03T11:06:20.585Z,16.52
2018-10-03T11:07:20.545Z,16.52
2018-10-03T11:08:20.510Z,16.38
2018-10-03T11:09:20.552Z,16.27
2018-10-03T11:10:20.479Z,16.17
2018-10-03T11:11:20.467Z,16.02
2018-10-03T11:12:20.458Z,15.89
2018-10-03T11:13:20.456Z,15.82
2018-10-03T11:14:20.435Z,15.76
2018-10-03T11:15:20.425Z,15.80
2018-10-03T11:16:20.414Z,15.87
2018-10-03T11:17:20.403Z,15.93
2018-10-03T11:18:20.430Z,15.92
2018-10-03T11:19:20.381Z,15.90
2018-10-03T11:20:20.371Z,15.87
2018-10-03T11:21:20.363Z,15.87
2018-10-03T11:22:20.348Z,15.90
2018-10-03T11:23:20.343Z,15.97
2018-10-03T11:24:20.536Z,16.09
2018-10-03T11:25:20.316Z,16.15
2018-10-03T11:26:20.304Z,16.30
2018-10-03T11:27:20.296Z,16.46
2018-10-03T11:28:20.282Z,16.52
2018-10-03T11:29:20.273Z,16.41
2018-10-03T11:30:20.271Z,16.34
2018-10-03T11:31:20.251Z,16.23
2018-10-03T11:32:20.243Z,16.15
2018-10-03T11:33:20.229Z,16.20
2018-10-03T11:34:20.217Z,16.01
2018-10-03T11:35:20.222Z,16.00
2018-10-03T11:36:20.195Z,16.09
2018-10-03T11:37:20.186Z,16.24
2018-10-03T11:38:20.318Z,16.33
2018-10-03T11:39:20.166Z,16.42
2018-10-03T11:40:20.172Z,16.73
2018-10-03T11:41:20.141Z,16.76
2018-10-03T11:42:20.129Z,17.01
2018-10-03T11:43:20.119Z,17.06
2018-10-03T11:44:20.115Z,17.36
2018-10-03T11:45:20.096Z,17.38
2018-10-03T11:46:20.114Z,17.51
2018-10-03T11:47:20.076Z,17.51
2018-10-03T11:48:20.064Z,17.49
2018-10-03T11:49:20.053Z,17.48
2018-10-03T11:50:20.042Z,17.52
2018-10-03T11:51:20.070Z,17.36
2018-10-03T11:52:20.021Z,17.33
2018-10-03T11:53:20.011Z,17.51
2018-10-03T11:54:19.999Z,17.49
2018-10-03T11:55:19.992Z,17.48
2018-10-03T11:56:19.982Z,17.51
2018-10-03T11:57:19.988Z,17.49
2018-10-03T11:58:19.961Z,17.36
2018-10-03T11:59:19.994Z,17.31
2018-10-03T12:00:19.939Z,17.26
2018-10-03T12:01:19.925Z,17.14
2018-10-03T12:02:19.917Z,17.16
2018-10-03T12:03:19.956Z,17.18
2018-10-03T12:04:19.892Z,17.06
2018-10-03T12:05:19.895Z,17.08
2018-10-03T12:06:19.869Z,16.94
2018-10-03T12:07:19.870Z,16.67
2018-10-03T12:08:19.848Z,16.58
2018-10-03T12:09:19.912Z,16.50
2018-10-03T12:10:19.826Z,16.42
2018-10-03T12:11:19.815Z,16.41
2018-10-03T12:12:19.823Z,16.43
2018-10-03T12:13:19.793Z,16.35
2018-10-03T12:14:19.783Z,16.38
2018-10-03T12:15:19.774Z,16.17
2018-10-03T12:16:19.760Z,16.23
2018-10-03T12:17:19.764Z,16.17
2018-10-03T12:18:19.759Z,16.00
2018-10-03T12:19:19.727Z,15.87
2018-10-03T12:20:19.716Z,15.86
2018-10-03T12:21:19.706Z,15.83
2018-10-03T12:22:19.696Z,15.68
2018-10-03T12:23:19.684Z,15.53
2018-10-03T12:24:19.711Z,15.51
2018-10-03T12:25:19.742Z,15.46
2018-10-03T12:26:19.652Z,15.32
2018-10-03T12:27:19.640Z,15.41
2018-10-03T12:28:19.631Z,15.44
2018-10-03T12:29:19.619Z,15.34
2018-10-03T12:30:19.620Z,15.49
2018-10-03T12:31:19.595Z,15.54
2018-10-03T12:32:19.599Z,15.51
2018-10-03T12:33:19.627Z,15.67
2018-10-03T12:34:19.572Z,15.74
2018-10-03T12:35:19.552Z,15.86
2018-10-03T12:36:19.542Z,15.86
2018-10-03T12:37:19.529Z,15.94
2018-10-03T12:38:19.518Z,16.01
2018-10-03T12:39:19.521Z,16.25
2018-10-03T12:40:19.500Z,16.23
2018-10-03T12:41:19.485Z,16.35
2018-10-03T12:42:19.475Z,16.39
2018-10-03T12:43:19.465Z,16.56
2018-10-03T12:44:19.463Z,16.57
2018-10-03T12:45:19.441Z,16.43
2018-10-03T12:46:19.431Z,16.42
2018-10-03T12:47:19.420Z,16.28
2018-10-03T12:48:19.409Z,16.31
2018-10-03T12:49:19.421Z,16.34
2018-10-03T12:50:19.387Z,16.23
2018-10-03T12:51:19.376Z,16.23
2018-10-03T12:52:19.365Z,16.25
2018-10-03T12:53:19.354Z,16.25
2018-10-03T12:54:19.343Z,16.42
2018-10-03T12:55:19.371Z,16.39
2018-10-03T12:56:19.330Z,16.43
2018-10-03T12:57:19.312Z,16.41
2018-10-03T12:58:19.325Z,16.35
2018-10-03T12:59:19.290Z,16.34
2018-10-03T13:00:19.277Z,16.42
2018-10-03T13:01:19.316Z,16.45
2018-10-03T13:02:19.255Z,16.53
2018-10-03T13:03:19.244Z,16.52